Main page
METAR-TAF:

METAR-TAF

Airports :

Bartolomeu Lysandro Airport

Campos dos Goytacazes, Rio de Janeiro, Brazil

latitude: 21-45S, longitude: 041-20W, elevation: 11 m

Current weather observation

The report was made 8 hours and 46 minutes ago, at 23:00 UTC
Wind 6 kt from the South
Temperature 25°C
Humidity 74%
Pressure 1012 hPa
Visibility 10 km or more
no clouds below 1500 m and no cumulonimbus

METAR: SBCP 182300Z 18006KT CAVOK 25/20 Q1012

Time: 04:46 (07:46 UTC)

Forecast

The report was made 4 hours and 16 minutes ago, at 03:30 UTC
Forecast valid from 19 at 06 UTC to 19 at 18 UTC
Wind 5 kt from the West
Visibility 10 km or more
Becoming
from 19 at 15 UTC to 19 at 17 UTC
Wind 7 kt from the South

TAF: SBCP 190330Z 1906/1918 26005KT 9999 SCT030TN23/1909Z TX30/1916Z BECMG 1915/1917 19007KT RMK PFV

Weather observations and forecasts of more than 4000 airports (METAR and TAF reports).

The available stations are represented by yellow and red dots on the map.

Hover mouse over dot to see the name of the station.

Then click to see weather observations and forecasts.

To change the map : click on the green buttons with a black cross to zoom in, on the green button with a dash to zoom out, or on the green arrows for adjacent maps.


METAR-TAF: